Terminal Aerodrome Forecast
Issued by NWS Sioux Falls, SD

Home | Current Version | Previous Version | Text Only | Print | Product List | Glossary On
Versions: 1 2 3 4 5 6 7 8 9 10 11 12 13 14 15
000
FTUS43 KFSD 250500
TAFFSD
TAF
KFSD 250520Z 2506/2606 VRB03KT P6SM SCT200
     FM250900 VRB03KT P6SM BKN120
     FM251500 31007KT P6SM SKC
     FM260000 VRB03KT P6SM SKC
     FM260300 08007KT P6SM SCT200=

USA.gov is the U.S. government's official web portal to all federal, state and local government web resources and services.